Time,TemperatureF,DewpointF,PressureIn,WindDirection,WindDirectionDegrees,WindSpeedMPH,WindSpeedGustMPH,Humidity,HourlyPrecipIn,Conditions,Clouds,dailyrainin,SoftwareType,DateUTC
2013-02-14 08:31:00,49.8,34.3,29.26,NW,315,1.3,1.3,55,0.00,,---,0.00,VWS V14.01,2013-02-14 07:31:00,
2013-02-14 08:32:00,49.8,34.3,29.26,SW,225,1.6,1.6,55,0.00,,---,0.00,VWS V14.01,2013-02-14 07:32:00,
2013-02-14 08:37:00,50.2,34.2,29.26,WNW,292,3.1,3.1,54,0.00,,---,0.00,VWS V14.01,2013-02-14 07:37:00,
2013-02-14 08:43:00,50.7,34.7,29.26,West,270,0.0,2.5,54,0.00,,---,0.00,VWS V14.01,2013-02-14 07:43:00,
2013-02-14 08:48:00,50.7,34.2,29.26,SSE,158,3.4,3.4,53,0.00,,---,0.00,VWS V14.01,2013-02-14 07:48:00,
2013-02-14 08:53:00,51.1,34.6,29.26,ESE,112,1.6,4.0,53,0.00,,---,0.00,VWS V14.01,2013-02-14 07:53:00,
2013-02-14 08:58:00,51.8,34.8,29.26,West,270,3.4,3.4,52,0.00,,---,0.00,VWS V14.01,2013-02-14 07:58:00,
2013-02-14 09:03:00,52.7,35.6,29.26,NW,315,1.3,1.3,52,0.00,,---,0.00,VWS V14.01,2013-02-14 08:03:00,
2013-02-14 09:08:00,52.7,35.6,29.26,WSW,248,2.5,2.5,52,0.00,,---,0.00,VWS V14.01,2013-02-14 08:08:00,
2013-02-14 10:02:00,52.3,34.8,29.29,West,270,3.1,3.1,51,0.00,,---,0.00,VWS V14.01,2013-02-14 09:02:00,
2013-02-14 10:07:00,55.2,35.9,29.29,SW,225,5.4,5.4,48,0.00,,---,0.00,VWS V14.01,2013-02-14 09:07:00,
2013-02-14 10:12:00,55.8,35.8,29.29,WSW,248,2.9,3.8,47,0.00,,---,0.00,VWS V14.01,2013-02-14 09:12:00,
2013-02-14 10:17:00,56.1,36.2,29.29,West,270,2.0,2.5,47,0.00,,---,0.00,VWS V14.01,2013-02-14 09:17:00,
2013-02-14 10:22:00,56.7,36.7,29.29,SW,225,2.7,2.7,47,0.00,,---,0.00,VWS V14.01,2013-02-14 09:22:00,
2013-02-14 10:28:00,57.6,37.0,29.29,SSW,202,2.7,2.7,46,0.00,,---,0.00,VWS V14.01,2013-02-14 09:28:00,
2013-02-14 10:33:00,58.3,37.6,29.29,ENE,68,2.5,2.5,46,0.00,,---,0.00,VWS V14.01,2013-02-14 09:33:00,
2013-02-14 10:38:00,58.6,37.9,29.29,SE,135,3.1,3.1,46,0.00,,---,0.00,VWS V14.01,2013-02-14 09:38:00,
2013-02-14 10:43:00,58.5,37.2,29.29,WSW,248,2.5,2.5,45,0.00,,---,0.00,VWS V14.01,2013-02-14 09:43:00,
2013-02-14 10:48:00,59.2,37.9,29.29,West,270,4.3,4.3,45,0.00,,---,0.00,VWS V14.01,2013-02-14 09:48:00,
2013-02-14 10:53:00,59.4,38.0,29.29,SW,225,2.0,2.9,45,0.00,,---,0.00,VWS V14.01,2013-02-14 09:53:00,
2013-02-14 10:58:00,60.1,38.7,29.29,West,270,2.0,2.0,45,0.00,,---,0.00,VWS V14.01,2013-02-14 09:58:00,
2013-02-14 11:04:00,59.7,37.8,29.29,SE,135,2.5,2.5,44,0.00,,---,0.00,VWS V14.01,2013-02-14 10:04:00,
2013-02-14 11:09:00,60.6,39.2,29.29,NW,315,1.3,2.2,45,0.00,,---,0.00,VWS V14.01,2013-02-14 10:09:00,
2013-02-14 11:14:00,62.2,40.1,29.29,West,270,1.1,1.1,44,0.00,,---,0.00,VWS V14.01,2013-02-14 10:14:00,
2013-02-14 11:19:00,62.1,39.9,29.29,SE,135,3.4,3.4,44,0.00,,---,0.00,VWS V14.01,2013-02-14 10:19:00,
2013-02-14 11:25:00,60.4,37.9,29.29,West,270,2.0,2.5,43,0.00,,---,0.00,VWS V14.01,2013-02-14 10:25:00,
2013-02-14 11:30:00,61.0,38.3,29.29,ENE,68,0.0,1.6,43,0.00,,---,0.00,VWS V14.01,2013-02-14 10:30:00,
2013-02-14 11:35:00,62.2,39.5,29.29,West,270,0.0,1.3,43,0.00,,---,0.00,VWS V14.01,2013-02-14 10:35:00,
2013-02-14 11:40:00,62.2,38.9,29.29,West,270,2.9,2.9,42,0.00,,---,0.00,VWS V14.01,2013-02-14 10:40:00,
2013-02-14 11:45:00,61.0,37.1,29.29,NW,315,2.0,2.0,41,0.00,,---,0.00,VWS V14.01,2013-02-14 10:45:00,
2013-02-14 11:50:00,63.0,38.9,29.29,NW,315,1.6,2.0,41,0.00,,---,0.00,VWS V14.01,2013-02-14 10:50:00,
2013-02-14 11:55:00,62.6,38.6,29.29,WSW,248,3.4,3.6,41,0.00,,---,0.00,VWS V14.01,2013-02-14 10:55:00,
2013-02-14 12:00:00,63.5,38.8,29.29,WSW,248,0.9,0.9,40,0.00,,---,0.00,VWS V14.01,2013-02-14 11:00:00,
2013-02-14 12:05:00,63.7,38.9,29.29,NE,45,0.9,2.0,40,0.00,,---,0.00,VWS V14.01,2013-02-14 11:05:00,
2013-02-14 12:10:00,63.5,38.8,29.29,NW,315,3.1,3.1,40,0.00,,---,0.00,VWS V14.01,2013-02-14 11:10:00,
2013-02-14 12:15:00,64.0,39.2,29.29,West,270,0.0,1.3,40,0.00,,---,0.00,VWS V14.01,2013-02-14 11:15:00,
2013-02-14 12:20:00,64.0,39.2,29.29,West,270,2.7,2.7,40,0.00,,---,0.00,VWS V14.01,2013-02-14 11:20:00,
2013-02-14 12:25:00,63.5,38.1,29.29,NNW,338,1.6,3.4,39,0.00,,---,0.00,VWS V14.01,2013-02-14 11:25:00,
2013-02-14 12:31:00,64.4,38.9,29.29,West,270,2.0,2.5,39,0.00,,---,0.00,VWS V14.01,2013-02-14 11:31:00,
2013-02-14 12:36:00,64.2,38.8,29.29,NW,315,0.0,1.6,39,0.00,,---,0.00,VWS V14.01,2013-02-14 11:36:00,
2013-02-14 12:41:00,66.2,39.9,29.29,NNE,22,2.0,2.5,38,0.00,,---,0.00,VWS V14.01,2013-02-14 11:41:00,
2013-02-14 12:46:00,66.0,39.7,29.29,SSW,202,2.7,2.7,38,0.00,,---,0.00,VWS V14.01,2013-02-14 11:46:00,
2013-02-14 12:51:00,64.8,38.6,29.29,NW,315,2.9,2.9,38,0.00,,---,0.00,VWS V14.01,2013-02-14 11:51:00,
2013-02-14 12:56:00,64.8,38.6,29.29,SW,225,1.6,1.6,38,0.00,,---,0.00,VWS V14.01,2013-02-14 11:56:00,
2013-02-14 13:01:00,65.5,38.5,29.29,WSW,248,3.8,3.8,37,0.00,,---,0.00,VWS V14.01,2013-02-14 12:01:00,
2013-02-14 13:06:00,65.5,38.5,29.29,SW,225,2.7,2.7,37,0.00,,---,0.00,VWS V14.01,2013-02-14 12:06:00,
2013-02-14 13:12:00,65.3,38.4,29.29,SSE,158,3.1,3.1,37,0.00,,---,0.00,VWS V14.01,2013-02-14 12:12:00,
2013-02-14 13:17:00,65.5,38.5,29.29,WSW,248,0.9,3.8,37,0.00,,---,0.00,VWS V14.01,2013-02-14 12:17:00,
2013-02-14 13:22:00,66.2,39.2,29.29,NW,315,0.0,3.1,37,0.00,,---,0.00,VWS V14.01,2013-02-14 12:22:00,
2013-02-14 13:27:00,66.0,39.0,29.29,West,270,2.7,2.7,37,0.00,,---,0.00,VWS V14.01,2013-02-14 12:27:00,
2013-02-14 13:32:00,66.0,39.0,29.29,North,0,1.3,2.5,37,0.00,,---,0.00,VWS V14.01,2013-02-14 12:32:00,
2013-02-14 13:37:00,65.1,38.2,29.29,West,270,2.5,2.9,37,0.00,,---,0.00,VWS V14.01,2013-02-14 12:37:00,
2013-02-14 13:42:00,65.3,38.4,29.29,East,90,1.6,1.6,37,0.00,,---,0.00,VWS V14.01,2013-02-14 12:42:00,
2013-02-14 13:47:00,66.7,39.0,29.29,WNW,292,1.1,1.1,36,0.00,,---,0.00,VWS V14.01,2013-02-14 12:47:00,
2013-02-14 13:53:00,65.8,38.2,29.29,NW,315,1.6,2.0,36,0.00,,---,0.00,VWS V14.01,2013-02-14 12:53:00,
2013-02-14 13:58:00,65.8,38.9,29.29,SW,225,3.1,3.1,37,0.00,,---,0.00,VWS V14.01,2013-02-14 12:58:00,
2013-02-14 14:03:00,65.5,38.5,29.29,ESE,112,3.1,3.1,37,0.00,,---,0.00,VWS V14.01,2013-02-14 13:03:00,
2013-02-14 14:08:00,64.4,36.9,29.29,West,270,2.9,2.9,36,0.00,,---,0.00,VWS V14.01,2013-02-14 13:08:00,
2013-02-14 14:13:00,64.4,37.6,29.29,West,270,2.0,2.0,37,0.00,,---,0.00,VWS V14.01,2013-02-14 13:13:00,
2013-02-14 14:18:00,65.1,38.2,29.29,WNW,292,1.1,2.2,37,0.00,,---,0.00,VWS V14.01,2013-02-14 13:18:00,
2013-02-14 14:23:00,65.3,37.7,29.29,West,270,3.6,3.6,36,0.00,,---,0.00,VWS V14.01,2013-02-14 13:23:00,
2013-02-14 14:28:00,65.7,38.0,29.29,NE,45,2.0,2.0,36,0.00,,---,0.00,VWS V14.01,2013-02-14 13:28:00,
2013-02-14 14:33:00,65.1,37.5,29.29,East,90,3.4,3.4,36,0.00,,---,0.00,VWS V14.01,2013-02-14 13:33:00,
2013-02-14 14:39:00,64.6,37.0,29.29,West,270,2.7,2.7,36,0.00,,---,0.00,VWS V14.01,2013-02-14 13:39:00,
2013-02-14 14:44:00,64.6,37.0,29.29,West,270,2.0,2.0,36,0.00,,---,0.00,VWS V14.01,2013-02-14 13:44:00,
2013-02-14 14:49:00,64.0,37.3,29.29,West,270,1.1,1.1,37,0.00,,---,0.00,VWS V14.01,2013-02-14 13:49:00,
2013-02-14 14:54:00,63.9,37.1,29.29,West,270,3.4,3.4,37,0.00,,---,0.00,VWS V14.01,2013-02-14 13:54:00,
2013-02-14 14:59:00,64.2,37.4,29.29,NNE,22,1.3,3.1,37,0.00,,---,0.00,VWS V14.01,2013-02-14 13:59:00,
2013-02-14 15:04:00,63.0,36.3,29.29,West,270,3.4,3.4,37,0.00,,---,0.00,VWS V14.01,2013-02-14 14:04:00,
2013-02-14 15:09:00,63.0,36.3,29.29,East,90,2.5,3.8,37,0.00,,---,0.00,VWS V14.01,2013-02-14 14:09:00,
2013-02-14 15:14:00,63.0,36.3,29.29,West,270,2.9,2.9,37,0.00,,---,0.00,VWS V14.01,2013-02-14 14:14:00,
2013-02-14 15:19:00,63.1,36.5,29.29,SW,225,2.7,2.7,37,0.00,,---,0.00,VWS V14.01,2013-02-14 14:19:00,
2013-02-14 15:24:00,62.6,36.0,29.29,West,270,0.9,1.3,37,0.00,,---,0.00,VWS V14.01,2013-02-14 14:24:00,
2013-02-14 15:29:00,62.2,35.7,29.29,West,270,2.9,2.9,37,0.00,,---,0.00,VWS V14.01,2013-02-14 14:29:00,
2013-02-14 15:35:00,62.8,36.2,29.29,WSW,248,2.5,3.1,37,0.00,,---,0.00,VWS V14.01,2013-02-14 14:35:00,
2013-02-14 16:49:00,63.0,36.3,29.29,West,270,2.5,2.5,37,0.00,,---,0.00,VWS V14.01,2013-02-14 15:49:00,
2013-02-14 16:54:00,60.4,34.7,29.29,NNW,338,1.6,1.6,38,0.00,,---,0.00,VWS V14.01,2013-02-14 15:54:00,
2013-02-14 16:59:00,60.1,34.4,29.29,East,90,1.1,2.7,38,0.00,,---,0.00,VWS V14.01,2013-02-14 15:59:00,
2013-02-14 17:04:00,59.7,34.1,29.29,West,270,1.6,1.6,38,0.00,,---,0.00,VWS V14.01,2013-02-14 16:04:00,
2013-02-14 17:09:00,59.0,33.5,29.32,West,270,1.3,1.3,38,0.00,,---,0.00,VWS V14.01,2013-02-14 16:09:00,
2013-02-14 17:14:00,58.1,33.3,29.32,WSW,248,2.0,2.0,39,0.00,,---,0.00,VWS V14.01,2013-02-14 16:14:00,
2013-02-14 17:19:00,57.9,33.1,29.32,West,270,0.9,2.0,39,0.00,,---,0.00,VWS V14.01,2013-02-14 16:19:00,
2013-02-14 17:24:00,55.4,31.5,29.32,WSW,248,3.4,3.4,40,0.00,,---,0.00,VWS V14.01,2013-02-14 16:24:00,
2013-02-14 17:29:00,54.3,31.1,29.32,SW,225,3.1,3.1,41,0.00,,---,0.00,VWS V14.01,2013-02-14 16:29:00,
2013-02-14 17:35:00,53.8,31.2,29.32,West,270,2.2,2.2,42,0.00,,---,0.00,VWS V14.01,2013-02-14 16:35:00,
2013-02-14 17:40:00,53.2,31.9,29.32,East,90,2.5,2.5,44,0.00,,---,0.00,VWS V14.01,2013-02-14 16:40:00,
2013-02-14 17:45:00,52.7,32.0,29.32,West,270,2.7,2.7,45,0.00,,---,0.00,VWS V14.01,2013-02-14 16:45:00,
2013-02-14 17:50:00,52.2,32.0,29.32,West,270,0.0,0.0,46,0.00,,---,0.00,VWS V14.01,2013-02-14 16:50:00,
2013-02-14 17:55:00,51.8,32.2,29.32,West,270,1.1,1.1,47,0.00,,---,0.00,VWS V14.01,2013-02-14 16:55:00,
2013-02-14 18:00:00,51.4,31.9,29.32,WNW,292,0.0,0.0,47,0.00,,---,0.00,VWS V14.01,2013-02-14 17:00:00,
2013-02-14 18:05:00,51.3,32.3,29.32,NNE,22,0.0,0.0,48,0.00,,---,0.00,VWS V14.01,2013-02-14 17:05:00,
2013-02-14 18:10:00,50.9,31.9,29.32,North,0,0.0,0.0,48,0.00,,---,0.00,VWS V14.01,2013-02-14 17:10:00,
2013-02-14 18:16:00,50.5,31.6,29.32,South,180,0.0,0.0,48,0.00,,---,0.00,VWS V14.01,2013-02-14 17:16:00,
2013-02-14 18:21:00,50.5,32.1,29.32,East,90,0.0,0.0,49,0.00,,---,0.00,VWS V14.01,2013-02-14 17:21:00,
2013-02-14 18:26:00,50.5,32.1,29.32,East,90,0.0,0.0,49,0.00,,---,0.00,VWS V14.01,2013-02-14 17:26:00,
2013-02-14 18:31:00,50.2,31.8,29.32,SE,135,0.0,0.0,49,0.00,,---,0.00,VWS V14.01,2013-02-14 17:31:00,
2013-02-14 18:36:00,50.0,31.6,29.32,East,90,0.0,0.0,49,0.00,,---,0.00,VWS V14.01,2013-02-14 17:36:00,
2013-02-14 18:41:00,50.0,31.6,29.32,East,90,0.0,0.0,49,0.00,,---,0.00,VWS V14.01,2013-02-14 17:41:00,
2013-02-14 18:47:00,50.0,31.6,29.32,SE,135,0.0,0.0,49,0.00,,---,0.00,VWS V14.01,2013-02-14 17:47:00,
2013-02-14 18:52:00,50.0,32.1,29.32,ENE,68,0.0,0.0,50,0.00,,---,0.00,VWS V14.01,2013-02-14 17:52:00,
2013-02-14 18:57:00,49.8,32.4,29.32,West,270,0.0,0.0,51,0.00,,---,0.00,VWS V14.01,2013-02-14 17:57:00,
2013-02-14 19:02:00,49.3,31.9,29.32,ESE,112,0.0,0.0,51,0.00,,---,0.00,VWS V14.01,2013-02-14 18:02:00,